Time;durP1;ratioP1;P1;durP2;ratioP2;P2;SDS_P1;SDS_P2;PMS_P1;PMS_P2;Temp;Humidity;BMP_temperature;BMP_pressure;BME280_temperature;BME280_humidity;BME280_pressure;Samples;Min_cycle;Max_cycle;Signal;HPM_P1;HPM_P2
2023/08/18 00:02:03;;;;;;;6.57;4.47;;;23.00;61.80;;;;;;5058907;28;20060;-55
2023/08/18 00:04:32;;;;;;;5.13;4.60;;;23.00;61.80;;;;;;5057871;28;20067;-54
2023/08/18 00:06:59;;;;;;;6.72;5.40;;;22.90;61.70;;;;;;5054631;28;20817;-56
2023/08/18 00:09:26;;;;;;;6.85;5.03;;;22.90;61.60;;;;;;5053004;28;20048;-56
2023/08/18 00:11:54;;;;;;;7.85;4.68;;;22.90;61.60;;;;;;5051973;28;20053;-56
2023/08/18 00:14:21;;;;;;;5.32;4.75;;;22.90;61.70;;;;;;5058419;28;20079;-56
2023/08/18 00:16:48;;;;;;;6.43;4.72;;;22.80;61.80;;;;;;5056465;28;21051;-56
2023/08/18 00:19:15;;;;;;;6.70;5.18;;;22.80;61.80;;;;;;5056798;28;20060;-56
2023/08/18 00:21:44;;;;;;;6.55;4.45;;;22.80;61.90;;;;;;5058112;28;20056;-56
2023/08/18 00:24:11;;;;;;;6.63;4.53;;;22.80;61.90;;;;;;5057274;28;20052;-56
2023/08/18 00:26:39;;;;;;;5.20;4.70;;;22.80;61.90;;;;;;5052126;28;20281;-55
2023/08/18 00:29:06;;;;;;;6.68;5.10;;;22.80;62.00;;;;;;5054993;28;20045;-58
2023/08/18 00:31:33;;;;;;;5.65;4.75;;;22.80;62.00;;;;;;5056813;28;20059;-57
2023/08/18 00:34:00;;;;;;;7.05;5.10;;;22.70;62.00;;;;;;5057984;28;20127;-57
2023/08/18 00:36:27;;;;;;;6.13;4.40;;;22.70;62.00;;;;;;5054731;28;20048;-57
2023/08/18 00:38:56;;;;;;;8.48;5.15;;;22.70;62.00;;;;;;5057674;28;20385;-57
2023/08/18 00:41:24;;;;;;;7.50;5.15;;;22.70;62.00;;;;;;5052008;28;20064;-57
2023/08/18 00:43:51;;;;;;;7.07;4.35;;;22.70;61.90;;;;;;5056197;28;20041;-58
2023/08/18 00:46:20;;;;;;;5.68;4.63;;;22.60;61.90;;;;;;5057457;28;20052;-56
2023/08/18 00:48:47;;;;;;;6.68;5.28;;;22.60;61.90;;;;;;5055824;28;20049;-56
2023/08/18 00:51:15;;;;;;;5.85;5.07;;;22.60;62.10;;;;;;5054026;28;20056;-57
2023/08/18 00:53:45;;;;;;;5.63;5.03;;;22.60;62.20;;;;;;5058124;28;20052;-57
2023/08/18 00:56:14;;;;;;;5.82;5.25;;;22.60;62.30;;;;;;5053089;28;20075;-56
2023/08/18 00:58:42;;;;;;;5.22;4.72;;;22.60;62.40;;;;;;5055054;28;20052;-56
2023/08/18 01:01:09;;;;;;;5.82;4.78;;;22.50;62.30;;;;;;5056671;28;20583;-57
2023/08/18 01:03:36;;;;;;;5.78;5.18;;;22.50;62.30;;;;;;5035214;22;20066;-90
2023/08/18 01:06:04;;;;;;;6.15;5.40;;;22.50;62.20;;;;;;4996358;28;20054;-89
2023/08/18 01:08:36;;;;;;;6.00;5.22;;;22.50;62.10;;;;;;4998500;28;20398;-89
2023/08/18 01:11:20;;;;;;;10.88;5.78;;;22.50;62.10;;;;;;4995695;28;20069;-90
2023/08/18 01:13:59;;;;;;;6.60;5.60;;;22.40;62.20;;;;;;5001217;28;20462;-90
2023/08/18 01:16:29;;;;;;;7.65;6.65;;;22.40;62.20;;;;;;4995767;28;20054;-90
2023/08/18 01:18:58;;;;;;;8.23;5.97;;;22.40;62.30;;;;;;4995708;28;20057;-89
2023/08/18 01:21:26;;;;;;;7.85;6.22;;;22.40;62.40;;;;;;4996317;28;20065;-90
2023/08/18 01:23:55;;;;;;;12.98;6.40;;;22.40;62.60;;;;;;4996516;28;20736;-90
2023/08/18 01:26:23;;;;;;;8.05;5.85;;;22.30;62.70;;;;;;4997291;28;20065;-91
2023/08/18 01:28:50;;;;;;;10.57;6.30;;;22.30;63.00;;;;;;4999145;28;20977;-90
2023/08/18 01:31:39;;;;;;;6.68;5.97;;;22.30;63.20;;;;;;5001531;28;20544;-89
2023/08/18 01:34:11;;;;;;;6.22;5.25;;;22.30;63.50;;;;;;4999620;28;20054;-91
2023/08/18 01:36:44;;;;;;;7.32;5.03;;;22.30;63.40;;;;;;4999528;28;20077;-90
2023/08/18 01:39:14;;;;;;;7.28;5.55;;;22.30;63.60;;;;;;5000041;28;20409;-89
2023/08/18 01:41:43;;;;;;;6.43;5.63;;;22.30;63.60;;;;;;4998454;28;20357;-92
2023/08/18 01:44:14;;;;;;;5.85;4.97;;;22.30;63.60;;;;;;4999940;28;20050;-89
2023/08/18 01:46:42;;;;;;;6.18;4.85;;;22.30;63.60;;;;;;4998465;28;20955;-91
2023/08/18 01:49:10;;;;;;;5.45;4.70;;;22.30;63.50;;;;;;5004081;28;20054;-90
2023/08/18 01:51:37;;;;;;;5.05;4.55;;;22.20;63.40;;;;;;5000014;28;20311;-91
2023/08/18 01:54:05;;;;;;;7.50;5.53;;;22.30;63.30;;;;;;4998327;28;20061;-90
2023/08/18 01:56:34;;;;;;;10.40;6.53;;;22.30;63.10;;;;;;4998247;28;20061;-88
2023/08/18 01:59:03;;;;;;;10.23;6.15;;;22.20;62.70;;;;;;4999696;28;20060;-88
2023/08/18 02:01:31;;;;;;;5.90;5.38;;;22.20;62.60;;;;;;5000869;28;20054;-91
2023/08/18 02:03:58;;;;;;;6.47;5.35;;;22.20;62.50;;;;;;5000402;28;20062;-89
2023/08/18 02:06:25;;;;;;;4.90;4.40;;;22.10;62.50;;;;;;4998769;28;20058;-88
2023/08/18 02:08:53;;;;;;;5.55;5.03;;;22.10;62.60;;;;;;4999399;28;20432;-91
2023/08/18 02:11:20;;;;;;;9.52;5.10;;;22.10;62.80;;;;;;4997537;28;20441;-90
2023/08/18 02:13:49;;;;;;;4.80;4.35;;;22.10;62.90;;;;;;4999806;28;20054;-90
2023/08/18 02:16:16;;;;;;;4.85;4.45;;;22.00;62.90;;;;;;5002955;28;20065;-91
2023/08/18 02:18:44;;;;;;;7.32;5.10;;;22.00;62.90;;;;;;5002891;28;20469;-90
2023/08/18 02:21:11;;;;;;;7.00;5.50;;;22.00;63.00;;;;;;5001442;28;20057;-89
2023/08/18 02:23:38;;;;;;;6.13;5.45;;;22.00;63.10;;;;;;5001175;28;20053;-90
2023/08/18 02:26:07;;;;;;;8.13;5.70;;;22.00;63.10;;;;;;5002968;28;20054;-90
2023/08/18 02:28:35;;;;;;;5.93;5.30;;;22.00;63.20;;;;;;5001020;28;20058;-90
2023/08/18 02:31:05;;;;;;;9.38;6.35;;;22.00;63.10;;;;;;5002409;28;20145;-91
2023/08/18 02:33:34;;;;;;;7.00;6.30;;;21.90;63.00;;;;;;5007159;28;20065;-89
2023/08/18 02:36:03;;;;;;;7.20;6.10;;;21.90;63.10;;;;;;5001335;28;20064;-90
2023/08/18 02:38:31;;;;;;;7.03;6.22;;;21.90;63.20;;;;;;5002904;28;20666;-91
2023/08/18 02:40:58;;;;;;;7.10;5.95;;;21.90;63.30;;;;;;5001685;28;20057;-90
2023/08/18 02:43:26;;;;;;;6.30;5.25;;;21.90;63.40;;;;;;5000250;28;20149;-90
2023/08/18 02:45:57;;;;;;;6.82;6.07;;;21.90;63.50;;;;;;5001262;28;20049;-92
2023/08/18 02:48:28;;;;;;;7.95;6.28;;;21.90;63.60;;;;;;5001973;28;20058;-90
2023/08/18 02:51:03;;;;;;;9.25;6.55;;;21.90;63.60;;;;;;5007301;28;20057;-92
2023/08/18 02:53:30;;;;;;;10.05;8.43;;;21.90;63.70;;;;;;5008876;28;20489;-90
2023/08/18 02:55:58;;;;;;;12.63;8.75;;;21.90;63.50;;;;;;5001276;28;20058;-89
2023/08/18 02:58:26;;;;;;;11.43;8.30;;;21.80;63.50;;;;;;4998797;28;20058;-91
2023/08/18 03:00:54;;;;;;;9.68;7.55;;;21.80;63.60;;;;;;5007856;28;20418;-92
2023/08/18 03:03:22;;;;;;;8.18;6.93;;;21.80;64.30;;;;;;5001527;28;20066;-91
2023/08/18 03:05:52;;;;;;;7.57;6.78;;;21.80;63.60;;;;;;5001554;28;20080;-90
2023/08/18 03:08:19;;;;;;;8.35;6.95;;;21.80;63.70;;;;;;5005949;28;20046;-90
2023/08/18 03:10:59;;;;;;;10.13;6.45;;;21.80;63.60;;;;;;5000639;28;20501;-89
2023/08/18 03:13:26;;;;;;;6.13;5.53;;;21.80;63.80;;;;;;5000238;28;20050;-91
2023/08/18 03:15:56;;;;;;;6.60;5.75;;;21.80;63.80;;;;;;5001234;28;20397;-90
2023/08/18 03:18:24;;;;;;;6.10;5.50;;;21.80;63.90;;;;;;5001835;28;20050;-91
2023/08/18 03:20:58;;;;;;;6.45;4.78;;;21.70;63.80;;;;;;5001314;28;20062;-91
2023/08/18 03:23:26;;;;;;;6.10;4.90;;;21.70;63.80;;;;;;4999771;28;20057;-89
2023/08/18 03:26:00;;;;;;;4.30;3.90;;;21.80;63.80;;;;;;4999495;28;20053;-90
2023/08/18 03:28:28;;;;;;;3.92;3.58;;;21.70;63.40;;;;;;4998328;28;20062;-89
2023/08/18 03:31:00;;;;;;;5.90;4.05;;;21.70;63.20;;;;;;4999858;28;20057;-90
2023/08/18 03:33:27;;;;;;;10.13;4.80;;;21.80;63.10;;;;;;5002172;28;20061;-91
2023/08/18 03:35:56;;;;;;;7.75;5.38;;;21.70;62.90;;;;;;5000722;28;20596;-92
2023/08/18 03:38:24;;;;;;;6.65;5.32;;;21.70;62.60;;;;;;4999772;28;20060;-91
2023/08/18 03:40:58;;;;;;;6.90;5.57;;;21.70;62.40;;;;;;5004801;28;20050;-91
2023/08/18 03:43:26;;;;;;;7.22;5.00;;;21.60;62.20;;;;;;4999379;28;20056;-90
2023/08/18 03:45:53;;;;;;;5.45;4.95;;;21.70;62.30;;;;;;5000381;28;20058;-91
2023/08/18 03:48:21;;;;;;;5.53;5.03;;;21.60;62.30;;;;;;5000025;28;20056;-91
2023/08/18 03:50:49;;;;;;;7.03;5.47;;;21.60;62.40;;;;;;4999430;28;20053;-91
2023/08/18 03:53:21;;;;;;;6.78;5.32;;;21.60;62.40;;;;;;5005022;28;20950;-90
2023/08/18 03:55:55;;;;;;;8.02;5.57;;;21.60;62.50;;;;;;5000437;28;20053;-91
2023/08/18 03:58:23;;;;;;;8.68;5.55;;;21.50;62.30;;;;;;4998740;28;20057;-91
2023/08/18 04:00:51;;;;;;;5.57;5.07;;;21.50;62.30;;;;;;4999559;28;20301;-89
2023/08/18 04:03:18;;;;;;;6.43;5.13;;;21.50;62.50;;;;;;4990065;28;20050;-89
2023/08/18 04:05:46;;;;;;;5.65;5.05;;;21.50;62.50;;;;;;4983201;28;20054;-92
2023/08/18 04:08:15;;;;;;;4.93;4.53;;;21.40;62.70;;;;;;4980171;28;20160;-90
2023/08/18 04:10:44;;;;;;;5.50;5.00;;;21.40;62.80;;;;;;4984111;28;20054;-92
2023/08/18 04:13:13;;;;;;;6.07;5.43;;;21.40;63.00;;;;;;4979677;28;20050;-90
2023/08/18 04:15:41;;;;;;;5.80;5.20;;;21.40;63.20;;;;;;4981182;28;20399;-90
2023/08/18 04:18:08;;;;;;;5.30;4.70;;;21.40;63.20;;;;;;4980631;28;20050;-90
2023/08/18 04:20:36;;;;;;;5.10;4.60;;;21.40;63.20;;;;;;4979564;28;20071;-89
2023/08/18 04:23:04;;;;;;;5.80;5.30;;;21.40;63.20;;;;;;4979989;28;20061;-90
2023/08/18 04:25:32;;;;;;;7.43;6.38;;;21.40;63.30;;;;;;4980787;28;20057;-91
2023/08/18 04:28:01;;;;;;;7.03;6.32;;;21.30;63.20;;;;;;4976800;28;20057;-87
2023/08/18 04:30:29;;;;;;;7.00;6.18;;;21.30;63.20;;;;;;4991200;28;20062;-89
2023/08/18 04:32:59;;;;;;;7.07;6.38;;;21.40;63.30;;;;;;4980932;28;20042;-87
2023/08/18 04:35:26;;;;;;;6.88;6.03;;;21.30;63.30;;;;;;4986933;28;20521;-87
2023/08/18 04:37:53;;;;;;;7.05;6.03;;;21.30;63.40;;;;;;4981465;28;20065;-84
2023/08/18 04:40:21;;;;;;;7.78;6.22;;;21.30;63.50;;;;;;4980070;28;20055;-88
2023/08/18 04:42:48;;;;;;;7.55;5.88;;;21.30;63.60;;;;;;4979393;28;20053;-88
2023/08/18 04:45:18;;;;;;;7.60;5.57;;;21.30;63.60;;;;;;4978690;28;20449;-88
2023/08/18 04:47:45;;;;;;;6.50;5.82;;;21.30;63.70;;;;;;4980679;28;20081;-91
2023/08/18 04:50:13;;;;;;;6.68;5.00;;;21.30;63.80;;;;;;4984015;28;20054;-89
2023/08/18 04:52:40;;;;;;;6.40;5.80;;;21.40;63.90;;;;;;4979831;28;20058;-88
2023/08/18 04:55:08;;;;;;;9.88;5.63;;;21.40;63.90;;;;;;4980134;28;20050;-85
2023/08/18 04:57:35;;;;;;;6.82;5.38;;;21.30;63.90;;;;;;4978157;28;20058;-88
2023/08/18 05:00:04;;;;;;;7.00;6.30;;;21.30;64.00;;;;;;4980717;28;20065;-89
2023/08/18 05:02:33;;;;;;;7.30;6.30;;;21.40;64.10;;;;;;4982449;28;20088;-89
2023/08/18 05:05:03;;;;;;;8.00;7.18;;;21.40;64.20;;;;;;5004990;28;20429;-93
2023/08/18 05:07:30;;;;;;;8.75;7.88;;;21.40;64.20;;;;;;5003660;28;20045;-89
2023/08/18 05:09:57;;;;;;;7.38;6.57;;;21.40;64.10;;;;;;5003351;28;20064;-89
2023/08/18 05:12:25;;;;;;;7.50;6.68;;;21.40;64.20;;;;;;5000836;28;20417;-86
2023/08/18 05:14:53;;;;;;;8.70;6.53;;;21.40;64.10;;;;;;5002433;28;20049;-88
2023/08/18 05:17:20;;;;;;;5.55;5.05;;;21.40;64.10;;;;;;5004175;28;20064;-88
2023/08/18 05:19:49;;;;;;;6.07;5.47;;;21.40;64.20;;;;;;5002847;28;20051;-88
2023/08/18 05:22:16;;;;;;;7.10;5.18;;;21.40;64.90;;;;;;5004157;28;20050;-83
2023/08/18 05:24:43;;;;;;;5.97;5.38;;;21.40;64.20;;;;;;5004680;28;20054;-88
2023/08/18 05:27:11;;;;;;;6.28;5.22;;;21.50;64.40;;;;;;5000952;28;20064;-87
2023/08/18 05:29:38;;;;;;;12.13;7.40;;;21.40;64.30;;;;;;5004580;28;20057;-88
2023/08/18 05:32:05;;;;;;;9.38;6.85;;;21.50;64.40;;;;;;5009025;28;20569;-92
2023/08/18 05:34:33;;;;;;;6.50;5.80;;;21.40;64.40;;;;;;5004430;28;20061;-88
2023/08/18 05:37:02;;;;;;;6.47;5.55;;;21.50;64.60;;;;;;5004787;28;20554;-89
2023/08/18 05:39:29;;;;;;;6.85;5.70;;;21.50;64.60;;;;;;5004960;28;20384;-87
2023/08/18 05:41:56;;;;;;;11.05;6.03;;;21.50;64.70;;;;;;5001439;28;20058;-87
2023/08/18 05:44:23;;;;;;;8.80;7.00;;;21.50;64.80;;;;;;5003660;28;20058;-87
2023/08/18 05:46:52;;;;;;;7.13;6.43;;;21.50;64.80;;;;;;5003400;28;20077;-88
2023/08/18 05:49:20;;;;;;;8.27;7.47;;;21.50;64.80;;;;;;5003248;28;20069;-89
2023/08/18 05:51:47;;;;;;;8.07;7.28;;;21.60;64.90;;;;;;5003805;28;20057;-89
2023/08/18 05:54:16;;;;;;;8.98;8.07;;;21.60;65.00;;;;;;5003180;28;20065;-87
2023/08/18 05:56:44;;;;;;;8.02;6.63;;;21.60;65.10;;;;;;5001651;28;20060;-89
2023/08/18 05:59:11;;;;;;;8.93;7.15;;;21.60;65.10;;;;;;5003062;28;20049;-87
2023/08/18 06:01:39;;;;;;;8.40;7.28;;;21.60;65.10;;;;;;5002690;28;20068;-88
2023/08/18 06:04:06;;;;;;;22.98;8.18;;;21.60;65.20;;;;;;5003596;28;20058;-86
2023/08/18 06:06:34;;;;;;;18.83;7.25;;;21.70;65.40;;;;;;5003709;28;20072;-86
2023/08/18 06:09:01;;;;;;;8.02;6.22;;;21.70;65.30;;;;;;5004306;28;20065;-86
2023/08/18 06:11:30;;;;;;;54.92;7.25;;;21.70;65.30;;;;;;5003273;28;20531;-86
2023/08/18 06:13:59;;;;;;;25.98;7.38;;;21.70;65.70;;;;;;5004030;28;20410;-86
2023/08/18 06:16:26;;;;;;;6.43;5.82;;;21.70;65.80;;;;;;5002897;28;20089;-86
2023/08/18 06:18:54;;;;;;;60.05;8.25;;;21.70;66.10;;;;;;5002938;28;20062;-90
2023/08/18 06:21:21;;;;;;;49.53;7.07;;;21.70;66.30;;;;;;5003002;28;20053;-88
2023/08/18 06:23:48;;;;;;;43.83;7.32;;;21.70;66.60;;;;;;5003061;28;20065;-89
2023/08/18 06:26:16;;;;;;;6.72;6.10;;;21.60;66.60;;;;;;5000859;28;20050;-89
2023/08/18 06:28:44;;;;;;;7.22;6.00;;;21.60;67.00;;;;;;5004322;28;20053;-87
2023/08/18 06:31:12;;;;;;;6.50;5.90;;;21.60;67.30;;;;;;5003778;28;20057;-86
2023/08/18 06:33:39;;;;;;;7.53;6.45;;;21.60;67.60;;;;;;5004686;28;20371;-85
2023/08/18 06:36:07;;;;;;;7.72;6.93;;;21.60;67.90;;;;;;5002777;28;20469;-88
2023/08/18 06:38:34;;;;;;;7.22;6.53;;;21.60;68.10;;;;;;5003219;28;20057;-88
2023/08/18 06:41:02;;;;;;;7.10;6.40;;;21.70;68.30;;;;;;5002422;28;20052;-88
2023/08/18 06:43:29;;;;;;;8.65;6.75;;;21.70;68.40;;;;;;5003078;28;20406;-86
2023/08/18 06:45:58;;;;;;;7.40;6.68;;;21.80;68.50;;;;;;5009168;28;20053;-87
2023/08/18 06:48:25;;;;;;;7.60;6.07;;;21.80;68.40;;;;;;5002914;28;20058;-87
2023/08/18 06:50:52;;;;;;;6.68;5.97;;;21.90;68.40;;;;;;5003131;28;20065;-89
2023/08/18 06:53:20;;;;;;;7.78;6.75;;;21.90;68.30;;;;;;5000645;28;20065;-87
2023/08/18 06:55:47;;;;;;;9.10;6.60;;;21.90;68.20;;;;;;5002689;28;20068;-87
2023/08/18 06:58:15;;;;;;;13.38;7.35;;;22.00;68.20;;;;;;5001112;28;20046;-88
2023/08/18 07:00:42;;;;;;;7.55;6.72;;;22.00;68.20;;;;;;5001658;28;20054;-88
2023/08/18 07:03:12;;;;;;;8.00;7.20;;;22.00;68.20;;;;;;5002654;28;20058;-89
2023/08/18 07:05:39;;;;;;;6.95;6.25;;;22.10;68.30;;;;;;5004178;28;20513;-87
2023/08/18 07:08:07;;;;;;;7.15;6.45;;;22.10;68.30;;;;;;5002226;28;20065;-86
2023/08/18 07:10:34;;;;;;;8.15;6.13;;;22.20;68.40;;;;;;5003267;28;20067;-87
2023/08/18 07:13:03;;;;;;;7.15;6.18;;;22.20;68.50;;;;;;5001571;28;20050;-87
2023/08/18 07:15:30;;;;;;;7.13;6.43;;;22.30;68.60;;;;;;5001493;28;20510;-86
2023/08/18 07:17:58;;;;;;;7.88;6.40;;;22.30;68.50;;;;;;5001114;28;20054;-87
2023/08/18 07:20:27;;;;;;;7.10;6.30;;;22.30;68.50;;;;;;5000836;28;20049;-87
2023/08/18 07:22:55;;;;;;;6.97;6.20;;;22.40;68.50;;;;;;5000177;28;20520;-87
2023/08/18 07:25:23;;;;;;;10.43;6.95;;;22.40;68.60;;;;;;5002194;28;20149;-86
2023/08/18 07:27:50;;;;;;;12.18;6.10;;;22.50;68.60;;;;;;5000310;28;20061;-87
2023/08/18 07:30:18;;;;;;;6.30;5.50;;;22.50;68.60;;;;;;5002487;28;20050;-87
2023/08/18 07:32:45;;;;;;;6.80;5.93;;;22.50;68.60;;;;;;5001792;28;20058;-86
2023/08/18 07:35:14;;;;;;;7.57;6.32;;;22.60;68.50;;;;;;5000820;28;20053;-86
2023/08/18 07:37:42;;;;;;;9.63;6.10;;;22.70;68.60;;;;;;5001800;28;20054;-88
2023/08/18 07:40:11;;;;;;;8.52;6.15;;;22.70;68.80;;;;;;5001493;28;20394;-87
2023/08/18 07:42:38;;;;;;;7.75;6.47;;;22.70;69.00;;;;;;5006327;28;20046;-88
2023/08/18 07:45:07;;;;;;;6.63;5.30;;;22.80;68.90;;;;;;5001348;28;20405;-87
2023/08/18 07:47:35;;;;;;;6.40;5.30;;;22.80;69.40;;;;;;5001098;28;20073;-87
2023/08/18 07:50:03;;;;;;;8.48;5.93;;;22.80;68.50;;;;;;5000410;28;20053;-88
2023/08/18 07:52:30;;;;;;;5.82;5.20;;;22.90;68.50;;;;;;5001708;28;20054;-86
2023/08/18 07:55:00;;;;;;;6.88;5.20;;;22.90;68.40;;;;;;5001549;28;20060;-87
2023/08/18 07:57:30;;;;;;;7.72;4.63;;;23.00;68.30;;;;;;5000926;28;20153;-87
2023/08/18 07:59:59;;;;;;;5.40;4.85;;;23.00;68.10;;;;;;4997893;28;20061;-87
2023/08/18 08:02:26;;;;;;;6.30;4.82;;;23.00;68.10;;;;;;4998735;28;20061;-89
2023/08/18 08:04:54;;;;;;;5.10;4.60;;;23.10;68.10;;;;;;5002357;28;20069;-88
2023/08/18 08:07:21;;;;;;;6.05;4.60;;;23.10;68.00;;;;;;5000819;28;20073;-88
2023/08/18 08:09:49;;;;;;;5.32;4.72;;;23.10;68.00;;;;;;4999840;28;20413;-90
2023/08/18 08:12:18;;;;;;;5.50;4.97;;;23.20;68.00;;;;;;4998313;28;20060;-92
2023/08/18 08:14:45;;;;;;;5.75;5.10;;;23.20;67.90;;;;;;4996154;28;20057;-84
2023/08/18 08:17:13;;;;;;;7.72;5.20;;;23.20;67.90;;;;;;5001474;28;20064;-91
2023/08/18 08:19:40;;;;;;;7.10;5.97;;;23.30;67.90;;;;;;5001739;28;20054;-89
2023/08/18 08:22:09;;;;;;;7.30;6.40;;;23.30;67.70;;;;;;5000159;28;20061;-89
2023/08/18 08:24:36;;;;;;;6.60;5.53;;;23.30;67.60;;;;;;5000744;28;20050;-91
2023/08/18 08:27:05;;;;;;;7.38;6.53;;;23.40;67.70;;;;;;5006096;28;20064;-91
2023/08/18 08:29:34;;;;;;;8.18;6.70;;;23.40;67.70;;;;;;5000949;28;20413;-89
2023/08/18 08:32:01;;;;;;;7.10;6.32;;;23.50;67.70;;;;;;5002558;28;20069;-89
2023/08/18 08:34:28;;;;;;;8.25;6.60;;;23.50;68.00;;;;;;5002533;28;20054;-89
2023/08/18 08:36:56;;;;;;;8.15;7.32;;;23.50;67.70;;;;;;5010763;28;20057;-89
2023/08/18 08:39:23;;;;;;;10.32;7.28;;;23.60;67.80;;;;;;5011455;28;20053;-89
2023/08/18 08:41:51;;;;;;;8.23;6.43;;;23.70;68.30;;;;;;5004814;28;20064;-88
2023/08/18 08:44:18;;;;;;;7.95;6.63;;;23.70;68.50;;;;;;5004863;28;20056;-89
2023/08/18 08:46:48;;;;;;;9.75;6.25;;;23.70;68.60;;;;;;5005734;28;20057;-89
2023/08/18 08:49:17;;;;;;;9.00;6.53;;;23.80;68.60;;;;;;5006600;28;20479;-90
2023/08/18 08:51:46;;;;;;;7.72;6.38;;;23.90;68.50;;;;;;5004740;28;20061;-89
2023/08/18 08:54:19;;;;;;;12.00;7.20;;;23.90;68.50;;;;;;5005246;28;20050;-90
2023/08/18 08:56:48;;;;;;;10.57;6.07;;;24.00;68.70;;;;;;5004016;28;20058;-89
2023/08/18 08:59:16;;;;;;;16.13;6.32;;;24.10;68.70;;;;;;5006433;28;20054;-89
2023/08/18 09:01:44;;;;;;;9.40;5.97;;;24.10;68.70;;;;;;5004846;28;20405;-89
2023/08/18 09:04:14;;;;;;;8.32;6.97;;;24.10;69.30;;;;;;5004589;28;20062;-88
2023/08/18 09:06:41;;;;;;;8.82;6.47;;;24.20;69.20;;;;;;5011848;28;20064;-89
2023/08/18 09:09:08;;;;;;;6.88;6.18;;;24.20;69.10;;;;;;5004664;28;20420;-89
2023/08/18 09:11:40;;;;;;;7.68;6.65;;;24.30;69.20;;;;;;5004835;28;20609;-88
2023/08/18 09:14:07;;;;;;;8.82;6.55;;;24.40;69.00;;;;;;5005450;28;20050;-88
2023/08/18 09:16:35;;;;;;;7.43;6.25;;;24.40;68.70;;;;;;5004551;28;20053;-87
2023/08/18 09:19:02;;;;;;;11.20;7.20;;;24.40;68.40;;;;;;5005654;28;20057;-88
2023/08/18 09:21:32;;;;;;;8.82;7.00;;;24.50;68.20;;;;;;5005340;28;20065;-87
2023/08/18 09:24:00;;;;;;;10.60;6.95;;;24.50;67.90;;;;;;5004763;28;20061;-88
2023/08/18 09:26:27;;;;;;;7.95;6.63;;;24.60;68.00;;;;;;5003759;28;20077;-88
2023/08/18 09:28:55;;;;;;;10.98;6.95;;;24.60;68.30;;;;;;5003340;28;20061;-87
2023/08/18 09:31:22;;;;;;;7.30;6.50;;;24.70;68.40;;;;;;5004882;28;20427;-88
2023/08/18 09:33:51;;;;;;;7.72;6.65;;;24.70;68.50;;;;;;5004380;28;20531;-86
2023/08/18 09:36:19;;;;;;;10.00;6.78;;;24.70;68.50;;;;;;5004619;28;20080;-87
2023/08/18 09:38:48;;;;;;;7.63;6.78;;;24.80;68.30;;;;;;5004784;28;20421;-91
2023/08/18 09:41:16;;;;;;;10.93;6.78;;;24.80;68.20;;;;;;5003265;28;20061;-88
2023/08/18 09:43:43;;;;;;;8.52;6.55;;;24.80;68.10;;;;;;5002978;28;20060;-87
2023/08/18 09:46:15;;;;;;;8.40;6.50;;;24.90;68.10;;;;;;5003124;28;20057;-89
2023/08/18 09:48:45;;;;;;;8.50;6.50;;;24.90;67.90;;;;;;5004250;28;20065;-88
2023/08/18 09:51:14;;;;;;;7.53;6.00;;;24.90;67.90;;;;;;5001011;28;20053;-89
2023/08/18 09:53:49;;;;;;;10.90;6.55;;;25.00;67.90;;;;;;5004209;28;20061;-88
2023/08/18 09:56:25;;;;;;;10.65;7.22;;;25.00;67.80;;;;;;5001932;28;20065;-87
2023/08/18 09:58:58;;;;;;;7.90;7.10;;;25.00;67.90;;;;;;5003620;28;20050;-87
2023/08/18 10:01:28;;;;;;;10.25;7.07;;;25.10;68.10;;;;;;4951395;28;20050;-88
2023/08/18 10:03:56;;;;;;;7.40;6.38;;;25.10;68.00;;;;;;5003086;28;20065;-88
2023/08/18 10:06:23;;;;;;;7.57;6.55;;;25.20;68.30;;;;;;5002240;28;20481;-87
2023/08/18 10:08:51;;;;;;;8.27;6.55;;;25.20;68.40;;;;;;5002710;28;20061;-88
2023/08/18 10:11:21;;;;;;;7.50;6.60;;;25.30;68.70;;;;;;5002288;28;20060;-88
2023/08/18 10:13:51;;;;;;;10.40;7.68;;;25.30;68.70;;;;;;5008422;28;20050;-88
2023/08/18 10:16:19;;;;;;;7.85;7.05;;;25.40;68.40;;;;;;5003521;28;20887;-87
2023/08/18 10:18:55;;;;;;;8.10;6.72;;;25.50;68.10;;;;;;5004147;28;20117;-86
2023/08/18 10:21:23;;;;;;;8.10;7.10;;;25.60;68.70;;;;;;5010878;28;20049;-88
2023/08/18 10:23:50;;;;;;;7.90;7.10;;;25.60;67.80;;;;;;5008440;28;20069;-90
2023/08/18 10:26:18;;;;;;;12.40;8.15;;;25.70;68.00;;;;;;5009008;28;20373;-88
2023/08/18 10:28:46;;;;;;;8.52;7.03;;;25.80;68.20;;;;;;5002139;28;20056;-89
2023/08/18 10:31:14;;;;;;;7.90;6.72;;;25.80;68.10;;;;;;5003287;28;20593;-90
2023/08/18 10:33:44;;;;;;;7.88;7.07;;;25.90;67.90;;;;;;5003354;28;20046;-89
2023/08/18 10:36:18;;;;;;;8.82;6.93;;;26.00;67.60;;;;;;5008871;28;20065;-90
2023/08/18 10:38:45;;;;;;;9.02;7.38;;;26.00;67.00;;;;;;5002452;28;20046;-89
2023/08/18 10:41:13;;;;;;;7.43;6.70;;;26.10;67.00;;;;;;5002310;28;20378;-90
2023/08/18 10:43:45;;;;;;;7.75;6.88;;;26.20;67.00;;;;;;5002041;28;20489;-89
2023/08/18 10:46:14;;;;;;;7.22;6.22;;;26.20;67.10;;;;;;5002685;28;20425;-89
2023/08/18 10:48:41;;;;;;;9.75;6.82;;;26.30;67.10;;;;;;5002590;28;21323;-90
2023/08/18 10:51:09;;;;;;;10.15;6.95;;;26.30;66.90;;;;;;5002345;28;20050;-89
2023/08/18 10:53:37;;;;;;;11.05;7.55;;;26.40;66.50;;;;;;5000831;28;20402;-91
2023/08/18 10:56:05;;;;;;;10.65;6.88;;;26.40;66.50;;;;;;5002103;28;20060;-89
2023/08/18 10:58:34;;;;;;;8.57;7.03;;;26.50;66.50;;;;;;4999915;28;20474;-92
2023/08/18 11:01:03;;;;;;;9.75;6.68;;;26.50;66.20;;;;;;5001994;28;20498;-90
2023/08/18 11:03:32;;;;;;;8.98;6.85;;;26.60;66.10;;;;;;5002405;28;20065;-90
2023/08/18 11:05:59;;;;;;;10.85;8.00;;;26.60;65.80;;;;;;5001901;28;20057;-89
2023/08/18 11:08:27;;;;;;;9.50;7.30;;;26.70;65.80;;;;;;5002232;28;20069;-90
2023/08/18 11:10:54;;;;;;;8.27;7.47;;;26.70;66.10;;;;;;5002522;28;20057;-89
2023/08/18 11:13:23;;;;;;;10.45;7.75;;;26.80;65.90;;;;;;5002397;28;20481;-91
2023/08/18 11:15:51;;;;;;;9.27;7.40;;;26.80;65.70;;;;;;5003403;28;20053;-88
2023/08/18 11:18:20;;;;;;;10.73;7.85;;;26.90;65.70;;;;;;5001793;28;20054;-87
2023/08/18 11:20:51;;;;;;;10.50;8.27;;;26.90;65.30;;;;;;5003738;28;20072;-88
2023/08/18 11:23:18;;;;;;;9.07;7.18;;;26.90;64.80;;;;;;5003045;28;20413;-89
2023/08/18 11:25:47;;;;;;;11.27;7.82;;;26.90;64.80;;;;;;5002459;28;20050;-88
2023/08/18 11:28:15;;;;;;;9.77;7.53;;;27.00;64.60;;;;;;5000563;28;20050;-88
2023/08/18 11:30:44;;;;;;;11.70;7.43;;;27.00;64.30;;;;;;5003045;28;20061;-89
2023/08/18 11:33:12;;;;;;;8.68;7.55;;;27.00;64.00;;;;;;5000864;28;20065;-88
2023/08/18 11:35:39;;;;;;;9.80;7.30;;;27.10;64.10;;;;;;5002311;28;20056;-89
2023/08/18 11:38:09;;;;;;;7.20;6.47;;;27.10;64.20;;;;;;5000433;28;20068;-89
2023/08/18 11:40:38;;;;;;;10.35;8.50;;;27.10;64.70;;;;;;5002032;28;20064;-88
2023/08/18 11:43:11;;;;;;;8.60;7.05;;;27.10;64.40;;;;;;5000275;28;20068;-88
2023/08/18 11:45:38;;;;;;;9.20;7.90;;;27.20;63.60;;;;;;5001455;28;20072;-88
2023/08/18 11:48:07;;;;;;;8.98;7.63;;;27.20;63.50;;;;;;5002946;28;20412;-89
2023/08/18 11:50:35;;;;;;;9.05;7.70;;;27.20;63.20;;;;;;5001827;28;20402;-88
2023/08/18 11:53:04;;;;;;;10.02;7.40;;;27.30;62.90;;;;;;5002263;28;20053;-87
2023/08/18 11:55:35;;;;;;;9.82;7.30;;;27.30;63.10;;;;;;5001535;28;20489;-87
2023/08/18 11:58:07;;;;;;;7.40;6.63;;;27.30;62.70;;;;;;5000245;28;20046;-87
2023/08/18 12:00:36;;;;;;;9.40;6.97;;;27.40;62.70;;;;;;5001895;28;20060;-87
2023/08/18 12:03:04;;;;;;;10.52;6.70;;;27.40;62.50;;;;;;5001256;28;20056;-87
2023/08/18 12:05:32;;;;;;;8.63;6.72;;;27.40;62.40;;;;;;5006611;28;20050;-87
2023/08/18 12:08:01;;;;;;;8.93;6.57;;;27.50;62.50;;;;;;5001833;28;20080;-87
2023/08/18 12:10:28;;;;;;;8.52;7.22;;;27.50;62.50;;;;;;5001280;28;20050;-88
2023/08/18 12:12:58;;;;;;;8.57;6.95;;;27.60;62.70;;;;;;5000065;28;20204;-88
2023/08/18 12:15:26;;;;;;;8.55;6.95;;;27.60;62.40;;;;;;5001688;28;20076;-88
2023/08/18 12:17:54;;;;;;;8.55;6.88;;;27.60;62.00;;;;;;5002184;28;20481;-87
2023/08/18 12:20:23;;;;;;;7.43;6.35;;;27.60;62.00;;;;;;5001384;28;20057;-87
2023/08/18 12:22:52;;;;;;;11.32;6.18;;;27.60;61.90;;;;;;5000662;28;20045;-88
2023/08/18 12:25:21;;;;;;;6.30;5.70;;;27.70;61.70;;;;;;5000626;28;20064;-87
2023/08/18 12:27:49;;;;;;;8.43;6.57;;;27.70;61.20;;;;;;5000960;28;20057;-88
2023/08/18 12:30:20;;;;;;;10.55;6.90;;;27.70;61.00;;;;;;4999773;28;20058;-87
2023/08/18 12:32:49;;;;;;;6.40;5.72;;;27.80;60.80;;;;;;5000388;28;20053;-87
2023/08/18 12:35:17;;;;;;;7.78;6.22;;;27.80;60.70;;;;;;5007062;28;20073;-89
2023/08/18 12:37:45;;;;;;;7.05;5.85;;;27.80;60.50;;;;;;5001728;28;20062;-87
2023/08/18 12:40:13;;;;;;;10.18;6.03;;;27.90;60.30;;;;;;5000021;28;20054;-88
2023/08/18 12:42:40;;;;;;;8.52;6.25;;;27.90;60.40;;;;;;5000401;28;20088;-87
2023/08/18 12:45:09;;;;;;;8.45;5.93;;;27.90;60.40;;;;;;5000130;28;20057;-89
2023/08/18 12:47:39;;;;;;;5.90;5.30;;;27.90;60.30;;;;;;5001040;28;20501;-87
2023/08/18 12:50:07;;;;;;;8.43;6.00;;;28.00;60.40;;;;;;5001254;28;20050;-87
2023/08/18 12:52:35;;;;;;;8.63;6.20;;;28.00;60.30;;;;;;5000153;28;20068;-86